Time;durP1;ratioP1;P1;durP2;ratioP2;P2;SDS_P1;SDS_P2;PMS_P1;PMS_P2;Temp;Humidity;BMP_temperature;BMP_pressure;BME280_temperature;BME280_humidity;BME280_pressure;Samples;Min_cycle;Max_cycle;Signal;HPM_P1;HPM_P2
2021/06/08 00:00:02;;;;;;;;;22.40;21.00;;;;;21.35;42.22;98966.75;6136235;28;125913;-63
2021/06/08 00:03:16;;;;;;;;;21.80;20.00;;;;;21.40;42.40;98976.84;6154839;28;126009;-63
2021/06/08 00:06:19;;;;;;;;;21.00;19.40;;;;;21.40;42.05;98969.44;6160862;28;125844;-63
2021/06/08 00:09:22;;;;;;;;;20.40;19.00;;;;;21.41;41.91;98978.44;6147949;28;125006;-63
2021/06/08 00:12:25;;;;;;;;;21.00;20.00;;;;;21.21;41.97;98937.53;6156290;28;126188;-63
2021/06/08 00:15:28;;;;;;;;;19.75;19.50;;;;;21.43;41.67;98981.72;6160466;28;124316;-63
2021/06/08 00:18:32;;;;;;;;;19.80;18.20;;;;;21.44;41.42;98973.22;6149517;28;125970;-63
2021/06/08 00:21:34;;;;;;;;;21.40;20.40;;;;;21.42;41.81;98974.59;6132467;28;126021;-63
2021/06/08 00:24:37;;;;;;;;;21.00;19.00;;;;;21.38;41.88;98971.63;6156713;28;125883;-63
2021/06/08 00:27:40;;;;;;;;;21.75;19.00;;;;;21.36;42.23;98973.00;6155693;28;125813;-63
2021/06/08 00:30:43;;;;;;;;;21.00;19.00;;;;;21.29;42.09;98970.63;6144045;28;126466;-63
2021/06/08 00:33:47;;;;;;;;;19.00;17.75;;;;;21.20;42.56;98960.59;6156081;28;125128;-63
2021/06/08 00:36:50;;;;;;;;;21.25;18.00;;;;;21.10;42.99;98962.28;6159588;28;126143;-63
2021/06/08 00:39:52;;;;;;;;;22.40;20.40;;;;;20.92;43.63;98960.25;6151086;28;125966;-64
2021/06/08 00:42:56;;;;;;;;;19.00;17.00;;;;;20.77;44.00;98957.63;6163928;28;126500;-64
2021/06/08 00:45:59;;;;;;;;;17.00;16.00;;;;;20.49;44.21;98937.28;6162229;28;124377;-64
2021/06/08 00:49:03;;;;;;;;;18.00;16.00;;;;;20.47;44.67;98952.38;6152194;28;125268;-64
2021/06/08 00:52:07;;;;;;;;;20.00;18.00;;;;;20.44;44.50;98956.50;6163569;28;126047;-64
2021/06/08 00:55:11;;;;;;;;;22.40;19.60;;;;;20.41;44.74;98948.88;6162076;28;126127;-64
2021/06/08 00:58:14;;;;;;;;;19.80;18.00;;;;;20.45;44.16;98949.94;6154734;28;125956;-64
2021/06/08 01:01:17;;;;;;;;;17.40;16.20;;;;;20.47;44.36;98950.47;6158053;28;124383;-64
2021/06/08 01:04:21;;;;;;;;;21.20;19.20;;;;;20.52;44.22;98946.88;6163848;28;124989;-64
2021/06/08 01:07:24;;;;;;;;;17.40;16.60;;;;;20.58;44.11;98945.72;6158573;28;125851;-64
2021/06/08 01:10:26;;;;;;;;;22.00;18.00;;;;;20.60;44.06;98952.56;6156385;28;126161;-64
2021/06/08 01:13:37;;;;;;;;;21.25;19.25;;;;;20.64;43.85;98958.28;6161340;28;126019;-64
2021/06/08 01:16:40;;;;;;;;;21.20;19.80;;;;;20.63;43.73;98948.41;6160916;28;126470;-64
2021/06/08 01:19:45;;;;;;;;;21.00;20.00;;;;;20.62;43.89;98957.75;6150710;28;126240;-64
2021/06/08 01:22:49;;;;;;;;;19.25;18.25;;;;;20.58;44.02;98951.19;6144230;28;124976;-64
2021/06/08 01:25:52;;;;;;;;;19.00;16.00;;;;;20.49;44.44;98951.00;6161477;28;124845;-64
2021/06/08 01:28:58;;;;;;;;;21.40;19.60;;;;;20.43;44.43;98956.81;6151742;28;124969;-64
2021/06/08 01:32:03;;;;;;;;;20.00;18.60;;;;;20.42;44.58;98957.91;6163211;28;126197;-64
2021/06/08 01:35:09;;;;;;;;;21.00;20.00;;;;;20.43;44.33;98962.28;6161185;28;124857;-64
2021/06/08 01:38:14;;;;;;;;;24.60;22.60;;;;;20.43;44.16;98957.59;6154801;28;125723;-64
2021/06/08 01:41:19;;;;;;;;;20.50;20.00;;;;;20.44;43.87;98955.69;6158657;28;126353;-64
2021/06/08 01:44:22;;;;;;;;;23.00;22.40;;;;;20.43;44.03;98954.06;6162320;28;126506;-64
2021/06/08 01:47:24;;;;;;;;;17.60;16.40;;;;;20.35;44.11;98952.72;6156831;28;124295;-64
2021/06/08 01:50:27;;;;;;;;;17.00;16.00;;;;;20.18;44.50;98949.53;6152859;28;124962;-64
2021/06/08 01:53:38;;;;;;;;;18.20;17.60;;;;;19.63;44.62;98879.50;6162879;28;124968;-64
2021/06/08 01:56:44;;;;;;;;;17.60;16.80;;;;;20.03;44.67;98953.16;6160832;28;125013;-64
2021/06/08 01:59:57;;;;;;;;;19.00;17.00;;;;;20.07;44.72;98956.97;6149397;28;124844;-64
2021/06/08 02:03:09;;;;;;;;;18.40;18.00;;;;;20.11;44.63;98949.84;6161909;28;124604;-64
2021/06/08 02:06:18;;;;;;;;;19.00;18.00;;;;;20.16;44.22;98951.72;6162778;28;124130;-64
2021/06/08 02:09:34;;;;;;;;;19.40;19.00;;;;;20.21;44.19;98954.44;6151262;28;126143;-64
2021/06/08 02:12:37;;;;;;;;;19.80;18.40;;;;;20.28;43.78;98963.16;6162592;28;126168;-64
2021/06/08 02:15:51;;;;;;;;;20.00;18.00;;;;;20.35;43.77;98960.13;6161793;28;124786;-64
2021/06/08 02:18:54;;;;;;;;;19.00;18.00;;;;;20.36;43.68;98956.28;6150770;28;124648;-64
2021/06/08 02:22:01;;;;;;;;;23.00;21.00;;;;;20.36;43.54;98959.84;6161645;28;126469;-64
2021/06/08 02:25:08;;;;;;;;;19.00;17.40;;;;;20.36;43.46;98968.06;6156411;28;124906;-64
2021/06/08 02:28:14;;;;;;;;;22.00;20.33;;;;;20.33;43.68;98974.91;6137257;28;123755;-64
2021/06/08 02:31:19;;;;;;;;;19.50;18.00;;;;;20.33;43.30;98969.44;6155697;28;125832;-64
2021/06/08 02:34:22;;;;;;;;;19.00;18.00;;;;;20.29;43.19;98965.59;6161943;28;124390;-64
2021/06/08 02:37:25;;;;;;;;;17.40;16.00;;;;;20.28;43.04;98968.63;6156057;28;124792;-64
2021/06/08 02:40:31;;;;;;;;;19.50;18.50;;;;;20.27;43.14;98976.03;6155171;28;124455;-64
2021/06/08 02:43:36;;;;;;;;;16.75;16.00;;;;;20.22;43.28;98964.28;6144688;28;123888;-64
2021/06/08 02:46:40;;;;;;;;;20.00;19.00;;;;;20.23;43.36;98974.16;6160160;28;124394;-64
2021/06/08 02:49:44;;;;;;;;;17.50;16.75;;;;;20.21;43.31;98979.88;6147056;28;125003;-64
2021/06/08 02:52:47;;;;;;;;;18.50;17.50;;;;;20.21;43.47;98985.38;6161577;28;126134;-64
2021/06/08 02:55:53;;;;;;;;;17.00;16.00;;;;;20.22;43.35;98973.31;6161811;28;125797;-64
2021/06/08 02:58:56;;;;;;;;;18.40;16.60;;;;;20.20;43.40;98989.19;6148657;28;126590;-64
2021/06/08 03:02:00;;;;;;;;;17.40;16.00;;;;;20.22;43.41;98992.47;6160406;28;124743;-64
2021/06/08 03:05:09;;;;;;;;;16.80;16.00;;;;;20.25;43.04;98991.91;6158534;28;124001;-64
2021/06/08 03:08:17;;;;;;;;;17.50;15.50;;;;;20.29;43.23;98986.69;6151466;28;123788;-64
2021/06/08 03:11:25;;;;;;;;;18.00;17.00;;;;;20.36;43.31;98987.22;6155747;28;124552;-64
2021/06/08 03:14:28;;;;;;;;;16.60;15.60;;;;;20.40;43.07;99001.16;6135807;28;125983;-64
2021/06/08 03:18:07;;;;;;;;;16.00;16.00;;;;;20.46;42.79;99000.88;6137732;28;125084;-64
2021/06/08 03:21:14;;;;;;;;;17.00;16.40;;;;;20.52;42.85;99002.47;6156060;28;123573;-64
2021/06/08 03:24:19;;;;;;;;;18.00;15.00;;;;;20.39;42.25;98980.34;6141080;28;126079;-64
2021/06/08 03:27:24;;;;;;;;;17.50;16.00;;;;;20.62;42.00;98996.91;6155610;28;124276;-64
2021/06/08 03:30:28;;;;;;;;;18.00;16.00;;;;;20.74;41.97;99011.09;6153688;28;124913;-64
2021/06/08 03:33:34;;;;;;;;;15.00;14.00;;;;;20.87;41.42;99008.78;6159970;28;124291;-64
2021/06/08 03:36:37;;;;;;;;;15.60;14.00;;;;;20.92;41.23;99008.75;6160980;28;126263;-64
2021/06/08 03:39:42;;;;;;;;;16.00;14.00;;;;;20.78;41.12;98975.69;6148392;28;126536;-64
2021/06/08 03:42:46;;;;;;;;;16.00;16.00;;;;;21.06;40.85;99015.25;6160721;28;124643;-64
2021/06/08 03:45:50;;;;;;;;;16.00;15.00;;;;;21.07;40.78;99011.38;6160631;28;126059;-64
2021/06/08 03:48:57;;;;;;;;;16.00;15.00;;;;;21.12;40.83;99014.06;6150937;28;124808;-64
2021/06/08 03:52:01;;;;;;;;;14.40;14.40;;;;;21.26;40.46;99014.28;6160854;28;126313;-64
2021/06/08 03:55:05;;;;;;;;;16.67;16.00;;;;;21.36;40.60;99005.94;6159881;28;126193;-64
2021/06/08 03:58:14;;;;;;;;;18.00;17.80;;;;;21.34;41.16;99005.41;6150432;28;123921;-64
2021/06/08 04:01:19;;;;;;;;;17.00;16.40;;;;;21.36;40.83;99001.25;6156062;28;127024;-64
2021/06/08 04:04:22;;;;;;;;;16.00;15.00;;;;;21.47;40.34;99008.28;6159522;28;124794;-64
2021/06/08 04:07:25;;;;;;;;;17.00;15.40;;;;;21.55;40.33;99007.66;6156435;28;126070;-64
2021/06/08 04:10:28;;;;;;;;;16.00;14.25;;;;;21.64;40.34;99009.78;6153417;28;124955;-65
2021/06/08 04:13:32;;;;;;;;;17.00;15.00;;;;;21.73;40.10;99008.84;6157080;28;126629;-64
2021/06/08 04:16:35;;;;;;;;;15.50;14.00;;;;;21.82;39.93;99015.31;6151537;28;124755;-64
2021/06/08 04:19:38;;;;;;;;;13.50;13.50;;;;;21.88;39.80;99016.09;6150558;28;126101;-65
2021/06/08 04:22:45;;;;;;;;;15.00;15.00;;;;;21.99;39.55;99018.44;6152119;28;128576;-64
2021/06/08 04:25:47;;;;;;;;;14.60;14.00;;;;;21.89;39.01;98984.78;6162756;28;126567;-64
2021/06/08 04:28:51;;;;;;;;;15.00;15.00;;;;;22.08;39.25;99013.13;6153726;28;126346;-65
2021/06/08 04:31:55;;;;;;;;;12.60;12.40;;;;;22.19;38.70;99008.31;6157841;28;124881;-64
2021/06/08 04:34:58;;;;;;;;;15.00;14.00;;;;;22.29;38.88;99019.97;6158657;28;126092;-64
2021/06/08 04:38:03;;;;;;;;;16.00;14.50;;;;;22.38;38.54;99017.41;6150655;28;126294;-64
2021/06/08 04:41:06;;;;;;;;;16.00;14.00;;;;;22.43;38.43;99020.88;6157901;28;126719;-64
2021/06/08 04:44:16;;;;;;;;;15.60;15.00;;;;;22.52;38.61;99018.31;6158251;28;126160;-64
2021/06/08 04:47:20;;;;;;;;;14.00;13.60;;;;;22.53;38.24;99011.69;6153572;28;125939;-64
2021/06/08 04:50:23;;;;;;;;;15.00;14.00;;;;;22.71;38.39;99021.09;6155981;28;125768;-64
2021/06/08 04:53:27;;;;;;;;;14.00;13.00;;;;;22.82;38.31;99015.13;6162578;28;126011;-64
2021/06/08 04:56:29;;;;;;;;;16.00;15.00;;;;;22.99;38.03;99025.59;6164096;28;124130;-64
2021/06/08 04:59:39;;;;;;;;;16.80;14.00;;;;;22.95;38.14;99019.06;6148977;28;127074;-64
2021/06/08 05:02:46;;;;;;;;;13.00;12.60;;;;;23.07;38.26;99026.81;6153792;28;126441;-64
2021/06/08 05:05:51;;;;;;;;;14.60;14.00;;;;;23.17;38.21;99027.47;6159301;28;124878;-64
2021/06/08 05:09:00;;;;;;;;;15.00;13.60;;;;;23.13;38.31;99012.72;6140635;28;125996;-64
2021/06/08 05:12:05;;;;;;;;;16.00;15.00;;;;;23.38;37.98;99027.97;6151102;28;126378;-64
2021/06/08 05:15:14;;;;;;;;;13.80;12.80;;;;;23.47;38.00;99030.84;6155218;28;124541;-64
2021/06/08 05:18:18;;;;;;;;;16.40;15.00;;;;;23.30;38.21;98999.22;6149768;28;126187;-64
2021/06/08 05:21:22;;;;;;;;;17.00;15.00;;;;;23.63;37.96;99033.03;6153226;28;126443;-64
2021/06/08 05:24:26;;;;;;;;;15.00;15.00;;;;;23.57;38.01;99016.91;6162257;28;126297;-64
2021/06/08 05:27:29;;;;;;;;;16.00;16.00;;;;;23.74;37.90;99033.69;6157481;28;126222;-64
2021/06/08 05:30:33;;;;;;;;;16.00;15.25;;;;;23.85;37.82;99026.03;6150958;28;125974;-64
2021/06/08 05:33:36;;;;;;;;;16.40;16.00;;;;;23.84;38.22;99035.41;6151403;28;124906;-64
2021/06/08 05:36:39;;;;;;;;;16.60;15.40;;;;;23.93;37.51;99039.91;6149135;28;126048;-64
2021/06/08 05:39:44;;;;;;;;;17.60;17.00;;;;;23.89;38.10;99035.31;6141735;28;126285;-64
2021/06/08 05:42:47;;;;;;;;;15.75;15.75;;;;;24.00;37.64;99032.03;6156254;28;124525;-64
2021/06/08 05:45:51;;;;;;;;;19.00;17.00;;;;;23.99;37.58;99015.84;6157618;28;124649;-64
2021/06/08 05:48:54;;;;;;;;;17.50;16.50;;;;;24.25;37.89;99030.72;6147396;28;124860;-64
2021/06/08 05:51:58;;;;;;;;;21.40;19.80;;;;;24.29;37.04;99036.47;6183114;28;126121;-64
2021/06/08 05:55:02;;;;;;;;;15.00;14.00;;;;;24.37;37.25;99033.78;6154989;28;126084;-64
2021/06/08 05:58:05;;;;;;;;;16.00;14.00;;;;;24.47;36.46;99030.81;6146434;28;125108;-64
2021/06/08 06:01:11;;;;;;;;;17.75;17.25;;;;;24.48;36.00;99035.19;6148491;28;126961;-65
2021/06/08 06:04:16;;;;;;;;;16.60;14.00;;;;;24.53;35.91;99035.06;6139028;28;126051;-65
2021/06/08 06:07:20;;;;;;;;;14.20;13.80;;;;;24.61;35.80;99039.06;6121075;28;123952;-65
2021/06/08 06:10:24;;;;;;;;;16.20;16.00;;;;;24.66;35.70;99022.41;6151317;28;125116;-65
2021/06/08 06:13:33;;;;;;;;;19.40;17.40;;;;;24.90;35.36;99036.75;6151310;28;126219;-65
2021/06/08 06:16:44;;;;;;;;;15.50;14.50;;;;;24.96;35.27;99038.28;6160606;28;125946;-65
2021/06/08 06:19:47;;;;;;;;;19.00;15.80;;;;;25.07;35.35;99038.81;6124768;28;123348;-64
2021/06/08 06:22:50;;;;;;;;;17.80;15.80;;;;;25.21;34.90;99031.31;6158072;28;124498;-64
2021/06/08 06:25:57;;;;;;;;;17.00;17.00;;;;;25.26;34.83;99038.66;6161984;28;124906;-65
2021/06/08 06:29:01;;;;;;;;;15.80;15.80;;;;;25.32;34.83;99032.66;6148986;28;126126;-65
2021/06/08 06:32:05;;;;;;;;;16.25;16.25;;;;;25.44;35.00;99034.88;6147297;28;125284;-65
2021/06/08 06:35:10;;;;;;;;;18.40;17.80;;;;;25.60;34.85;99033.38;6140776;28;127686;-65
2021/06/08 06:38:13;;;;;;;;;17.00;17.00;;;;;25.77;34.68;99035.38;6150825;28;126308;-65
2021/06/08 06:41:18;;;;;;;;;18.00;17.00;;;;;25.91;34.56;99030.56;6154120;28;124670;-65
2021/06/08 06:44:23;;;;;;;;;20.40;19.40;;;;;25.93;34.88;99021.97;6144154;28;126951;-65
2021/06/08 06:47:27;;;;;;;;;17.75;17.00;;;;;26.19;34.45;99031.19;6147243;28;125001;-65
2021/06/08 06:50:31;;;;;;;;;17.20;16.60;;;;;26.20;34.26;99033.59;6146704;28;126128;-65
2021/06/08 06:53:34;;;;;;;;;19.60;19.00;;;;;26.42;35.00;99029.16;6147143;28;127081;-65
2021/06/08 06:56:38;;;;;;;;;18.00;18.00;;;;;26.54;34.17;99027.38;6146097;28;125229;-64
2021/06/08 06:59:41;;;;;;;;;20.00;19.00;;;;;26.73;33.97;99025.13;6138826;28;125688;-65
2021/06/08 07:02:48;;;;;;;;;21.00;20.00;;;;;26.77;33.84;99024.47;6148682;28;126319;-65
2021/06/08 07:06:08;;;;;;;;;19.00;18.20;;;;;26.83;34.18;99026.75;6136558;28;97361;-65
2021/06/08 07:09:12;;;;;;;;;24.00;20.00;;;;;27.02;34.25;99032.00;6142213;28;124308;-65
2021/06/08 07:12:17;;;;;;;;;19.00;19.00;;;;;27.15;34.25;99031.00;6157797;28;126135;-65
2021/06/08 07:15:24;;;;;;;;;20.20;18.00;;;;;27.43;33.79;99037.78;6146950;28;124887;-65
2021/06/08 07:18:28;;;;;;;;;19.00;17.00;;;;;27.55;33.45;99029.66;6147369;28;125972;-65
2021/06/08 07:21:31;;;;;;;;;20.50;19.00;;;;;27.70;32.96;99027.50;6153795;28;126027;-65
2021/06/08 07:24:35;;;;;;;;;22.50;19.00;;;;;27.82;32.73;99035.94;6151180;28;125065;-65
2021/06/08 07:27:37;;;;;;;;;18.00;17.00;;;;;27.89;32.35;99027.94;6144561;28;125920;-63
2021/06/08 07:30:42;;;;;;;;;18.80;17.20;;;;;28.13;32.67;99025.41;6152761;28;126334;-65
2021/06/08 07:33:53;;;;;;;;;16.00;15.00;;;;;28.34;32.04;99037.38;6155260;28;124835;-65
2021/06/08 07:36:58;;;;;;;;;18.00;17.00;;;;;28.50;31.60;99031.22;6142036;28;124074;-64
2021/06/08 07:40:05;;;;;;;;;16.00;14.00;;;;;28.68;31.80;99038.28;6140167;28;126010;-65
2021/06/08 07:43:11;;;;;;;;;17.00;17.00;;;;;28.76;30.95;99037.44;6138118;28;125655;-65
2021/06/08 07:46:17;;;;;;;;;17.20;16.80;;;;;28.98;31.00;99037.06;6138947;28;124549;-66
2021/06/08 07:49:22;;;;;;;;;17.00;15.00;;;;;29.15;30.09;99039.72;6137814;28;124802;-66
2021/06/08 07:52:26;;;;;;;;;16.25;15.25;;;;;29.45;30.20;99037.66;6157395;28;126990;-65
2021/06/08 07:55:30;;;;;;;;;15.00;15.00;;;;;29.60;29.90;99037.00;6158032;28;125873;-65
2021/06/08 07:58:33;;;;;;;;;16.00;15.60;;;;;29.74;29.70;99038.66;6148655;28;126118;-64
2021/06/08 08:01:36;;;;;;;;;15.00;14.50;;;;;29.87;28.66;99032.75;6159175;28;126829;-65
2021/06/08 08:04:48;;;;;;;;;13.00;13.00;;;;;30.01;28.63;99038.00;6160033;28;126358;-64
2021/06/08 08:07:51;;;;;;;;;17.00;16.00;;;;;30.18;29.16;99043.38;6149132;28;124748;-63
2021/06/08 08:10:55;;;;;;;;;15.00;14.20;;;;;30.46;29.03;99032.38;6155576;28;124719;-65
2021/06/08 08:13:59;;;;;;;;;14.40;14.40;;;;;30.71;27.59;99033.97;6148240;28;125182;-64
2021/06/08 08:17:03;;;;;;;;;13.00;12.00;;;;;30.77;27.00;99032.56;6148161;28;125666;-64
2021/06/08 08:20:09;;;;;;;;;13.00;12.00;;;;;31.07;27.69;99029.47;6145031;28;124538;-65
2021/06/08 08:23:13;;;;;;;;;16.00;15.40;;;;;31.35;27.13;99035.84;6161671;28;125478;-64
2021/06/08 08:26:17;;;;;;;;;12.00;11.75;;;;;31.51;26.53;99021.97;6161941;28;124305;-64
2021/06/08 08:29:19;;;;;;;;;13.60;13.00;;;;;31.57;26.15;99028.94;6151863;28;126584;-65
2021/06/08 08:32:23;;;;;;;;;14.00;13.00;;;;;31.68;26.13;99019.66;6162130;28;124892;-64
2021/06/08 08:35:28;;;;;;;;;13.00;13.00;;;;;31.80;25.78;99024.38;6161065;28;124979;-65
2021/06/08 08:38:31;;;;;;;;;11.00;11.00;;;;;32.03;25.33;99016.16;6147079;28;124364;-65
2021/06/08 08:41:34;;;;;;;;;12.60;12.00;;;;;32.15;24.09;99022.50;6160593;28;125118;-65
2021/06/08 08:44:38;;;;;;;;;12.00;12.00;;;;;32.23;23.91;99021.50;6152414;28;124793;-66
2021/06/08 08:47:42;;;;;;;;;10.00;10.00;;;;;32.21;23.80;99017.44;6155823;28;125432;-64
2021/06/08 08:50:46;;;;;;;;;9.75;9.00;;;;;32.31;22.15;99010.50;6147790;28;126990;-65
2021/06/08 08:53:53;;;;;;;;;10.40;9.00;;;;;32.45;22.17;99022.03;6157257;28;126046;-64
2021/06/08 08:56:58;;;;;;;;;10.50;10.50;;;;;32.46;22.39;99018.84;6160935;28;125947;-63
2021/06/08 09:00:03;;;;;;;;;10.00;10.00;;;;;32.74;23.12;99027.09;6139867;28;124045;-66
2021/06/08 09:03:15;;;;;;;;;11.50;10.50;;;;;33.02;23.93;99016.53;6153618;28;124348;-65
2021/06/08 09:06:22;;;;;;;;;11.00;10.20;;;;;33.25;22.51;99010.22;6150675;28;126172;-65
2021/06/08 09:09:24;;;;;;;;;10.80;10.00;;;;;33.45;23.50;99020.19;6143996;28;125849;-64
2021/06/08 09:12:28;;;;;;;;;10.00;10.00;;;;;33.45;22.15;99018.22;6153033;28;126896;-65
2021/06/08 09:15:33;;;;;;;;;11.00;10.00;;;;;33.33;22.32;99020.38;6154128;28;125137;-65
2021/06/08 09:18:38;;;;;;;;;10.00;10.00;;;;;33.59;22.48;99012.09;6142678;28;125836;-64
2021/06/08 09:21:44;;;;;;;;;11.00;10.00;;;;;33.53;22.07;99000.38;6160220;28;125106;-65
2021/06/08 09:24:54;;;;;;;;;11.00;11.00;;;;;33.71;21.42;99011.13;6158040;28;126514;-65
2021/06/08 09:28:16;;;;;;;;;9.75;9.00;;;;;33.62;21.77;99010.53;6149168;28;125512;-63
2021/06/08 09:31:20;;;;;;;;;10.75;10.00;;;;;33.62;22.35;99016.13;6146900;28;127004;-65
2021/06/08 09:34:34;;;;;;;;;11.00;11.00;;;;;33.60;22.24;99010.91;6156488;28;123977;-62
2021/06/08 09:37:42;;;;;;;;;12.00;11.00;;;;;33.85;22.33;99003.81;6142778;28;125755;-62
2021/06/08 09:40:45;;;;;;;;;10.00;10.00;;;;;33.92;22.34;98983.53;6147024;28;123874;-62
2021/06/08 09:43:53;;;;;;;;;10.80;10.80;;;;;34.20;21.84;99005.59;6153009;28;125761;-63
2021/06/08 09:46:59;;;;;;;;;11.60;10.60;;;;;34.15;21.85;99012.31;6153611;28;124573;-61
2021/06/08 09:50:22;;;;;;;;;13.60;11.60;;;;;34.00;21.58;99009.63;6144396;28;126139;-63
2021/06/08 09:53:28;;;;;;;;;13.00;12.00;;;;;33.95;22.15;99007.97;6148670;28;125736;-62
2021/06/08 09:56:33;;;;;;;;;12.25;11.25;;;;;33.84;22.67;99007.78;6158772;28;124728;-64
2021/06/08 09:59:40;;;;;;;;;12.60;11.60;;;;;33.69;22.78;99008.69;6139329;28;126881;-62
2021/06/08 10:02:45;;;;;;;;;12.00;11.00;;;;;33.53;22.13;99009.97;6155921;28;125999;-64
2021/06/08 10:05:47;;;;;;;;;12.80;11.80;;;;;33.35;22.45;99007.66;6147995;28;124835;-63
2021/06/08 10:08:54;;;;;;;;;12.00;11.00;;;;;33.29;22.92;99008.31;6140977;28;124912;-64
2021/06/08 10:12:05;;;;;;;;;12.00;11.50;;;;;33.64;23.16;99000.59;6150996;28;126004;-64
2021/06/08 10:15:09;;;;;;;;;11.00;10.40;;;;;34.09;22.09;98996.19;6157056;28;124659;-65
2021/06/08 10:18:12;;;;;;;;;11.00;10.75;;;;;34.22;20.32;98990.03;6149513;28;126072;-64
2021/06/08 10:21:15;;;;;;;;;11.40;11.00;;;;;34.47;20.84;98984.81;6149619;28;126958;-64
2021/06/08 10:24:20;;;;;;;;;11.00;10.00;;;;;34.85;20.14;98994.16;6156561;28;126861;-63
2021/06/08 10:27:23;;;;;;;;;9.60;9.00;;;;;35.00;18.46;98982.75;6154616;28;126405;-64
2021/06/08 10:30:26;;;;;;;;;11.00;10.00;;;;;35.33;19.16;98984.78;6151793;28;124361;-64
2021/06/08 10:33:29;;;;;;;;;9.40;9.00;;;;;35.60;17.61;98982.63;6154968;28;126335;-63
2021/06/08 10:36:47;;;;;;;;;8.20;8.00;;;;;35.79;18.25;98984.44;6149657;28;127219;-64
2021/06/08 10:39:54;;;;;;;;;11.00;10.00;;;;;35.99;17.51;98975.41;6143576;28;126015;-64
2021/06/08 10:42:57;;;;;;;;;8.50;8.50;;;;;35.81;17.79;98966.03;6154335;28;124757;-65
2021/06/08 10:46:00;;;;;;;;;11.00;11.00;;;;;35.59;18.79;98992.22;6157746;28;124116;-62
2021/06/08 10:49:06;;;;;;;;;13.00;12.40;;;;;35.10;19.84;98984.06;6139245;28;126320;-63
2021/06/08 10:52:11;;;;;;;;;12.00;12.00;;;;;34.82;20.45;98980.91;6153795;28;126457;-63
2021/06/08 10:55:15;;;;;;;;;13.00;12.60;;;;;34.57;20.21;98972.97;6158410;28;126171;-63
2021/06/08 10:58:48;;;;;;;;;14.00;13.00;;;;;34.29;21.03;98980.94;6151875;28;124160;-63
2021/06/08 11:01:51;;;;;;;;;14.00;13.00;;;;;34.16;21.13;98955.13;6151216;28;125924;-64
2021/06/08 11:04:56;;;;;;;;;12.00;12.00;;;;;34.18;21.35;98975.19;6160000;28;126405;-64
2021/06/08 11:07:59;;;;;;;;;13.00;13.00;;;;;34.42;20.55;98967.53;6151679;28;126104;-64
2021/06/08 11:11:03;;;;;;;;;12.40;12.00;;;;;34.71;21.43;98967.56;6155673;28;126660;-64
2021/06/08 11:14:45;;;;;;;;;13.00;12.75;;;;;35.07;20.09;98957.63;6160057;28;125877;-64
2021/06/08 11:17:47;;;;;;;;;10.00;10.00;;;;;35.19;19.81;98957.38;6147648;28;123770;-64
2021/06/08 11:21:24;;;;;;;;;11.60;11.60;;;;;34.91;19.85;98964.63;6138562;28;126414;-63
2021/06/08 11:24:37;;;;;;;;;14.00;13.00;;;;;34.81;20.36;98965.28;6169895;28;126934;-63
2021/06/08 11:27:55;;;;;;;;;12.00;11.80;;;;;34.56;20.19;98956.53;6144962;28;126397;-64
2021/06/08 11:31:00;;;;;;;;;11.00;10.00;;;;;34.40;20.67;98959.53;6140817;28;124801;-64
2021/06/08 11:34:05;;;;;;;;;13.60;13.00;;;;;34.24;20.52;98953.28;6138309;28;126861;-65
2021/06/08 11:37:47;;;;;;;;;11.40;11.00;;;;;34.10;19.95;98956.66;6137903;28;126142;-64
2021/06/08 11:40:52;;;;;;;;;13.00;12.00;;;;;34.03;21.14;98958.53;6142521;28;124717;-65
2021/06/08 11:44:00;;;;;;;;;11.80;11.20;;;;;33.81;21.02;98932.22;6141182;28;125840;-64
2021/06/08 11:47:04;;;;;;;;;11.00;11.00;;;;;33.97;21.54;98955.22;6145987;28;126060;-64
2021/06/08 11:50:07;;;;;;;;;11.00;11.00;;;;;33.93;20.60;98957.97;6142364;28;123850;-63
2021/06/08 11:53:13;;;;;;;;;11.80;10.80;;;;;33.96;20.58;98950.03;6146980;28;126171;-65
2021/06/08 11:56:16;;;;;;;;;11.00;10.00;;;;;33.91;21.16;98954.75;6139984;28;124793;-63
2021/06/08 11:59:21;;;;;;;;;11.00;10.50;;;;;33.91;21.31;98953.97;6143082;28;126181;-64
2021/06/08 12:02:30;;;;;;;;;10.60;10.60;;;;;33.95;21.51;98943.63;6154344;28;127396;-64
2021/06/08 12:05:43;;;;;;;;;11.40;11.40;;;;;33.97;21.34;98948.81;6136640;28;126253;-65
2021/06/08 12:08:50;;;;;;;;;11.00;11.00;;;;;33.92;21.18;98941.56;6139605;28;126829;-65
2021/06/08 12:11:54;;;;;;;;;9.50;9.50;;;;;33.87;21.31;98934.28;6137169;28;125776;-64
2021/06/08 12:14:57;;;;;;;;;11.00;10.00;;;;;34.13;21.77;98929.91;6148476;28;125777;-64
2021/06/08 12:18:12;;;;;;;;;9.75;9.75;;;;;34.18;20.58;98932.41;6142457;28;125175;-64
2021/06/08 12:21:16;;;;;;;;;10.00;10.00;;;;;34.13;20.87;98916.72;6141173;28;126513;-63
2021/06/08 12:24:21;;;;;;;;;10.00;10.00;;;;;34.42;20.33;98928.34;6157241;28;124708;-64
2021/06/08 12:27:33;;;;;;;;;11.00;11.00;;;;;34.72;21.50;98915.97;6146509;28;124433;-64
2021/06/08 12:30:36;;;;;;;;;10.00;9.00;;;;;34.86;20.16;98920.13;6147943;28;124783;-63
2021/06/08 12:33:39;;;;;;;;;11.00;11.00;;;;;34.84;20.08;98911.31;6157728;28;125320;-64
2021/06/08 12:36:43;;;;;;;;;10.00;10.00;;;;;34.90;19.95;98920.97;6149283;28;125210;-64
2021/06/08 12:39:51;;;;;;;;;11.00;11.00;;;;;34.87;19.49;98921.75;6143563;28;126375;-62
2021/06/08 12:43:00;;;;;;;;;9.60;9.60;;;;;34.81;19.60;98914.88;6160231;28;126493;-63
2021/06/08 12:46:03;;;;;;;;;9.00;9.00;;;;;34.79;19.80;98915.28;6160475;28;125934;-63
2021/06/08 12:49:09;;;;;;;;;10.80;9.80;;;;;34.87;19.60;98910.53;6127411;28;123745;-63
2021/06/08 12:52:16;;;;;;;;;10.00;9.00;;;;;34.92;19.51;98911.00;6156072;28;124891;-62
2021/06/08 12:55:20;;;;;;;;;10.20;9.80;;;;;35.17;19.54;98912.13;6152791;28;125125;-63
2021/06/08 12:58:25;;;;;;;;;8.00;8.00;;;;;35.48;19.59;98907.22;6151765;28;126163;-62
2021/06/08 13:01:35;;;;;;;;;10.00;9.40;;;;;35.63;19.41;98908.94;6138721;28;125755;-62
2021/06/08 13:04:40;;;;;;;;;9.40;9.40;;;;;35.92;20.27;98899.56;6141663;28;124972;-63
2021/06/08 13:07:45;;;;;;;;;9.00;8.60;;;;;35.96;18.81;98906.03;6144230;28;126082;-62
2021/06/08 13:10:49;;;;;;;;;8.00;8.00;;;;;35.95;19.19;98907.22;6143576;28;126795;-63
2021/06/08 13:13:53;;;;;;;;;10.00;9.00;;;;;35.63;18.28;98880.88;6142775;28;124804;-64
2021/06/08 13:16:56;;;;;;;;;9.00;9.00;;;;;35.57;19.52;98897.28;6149055;28;124842;-62
2021/06/08 13:19:59;;;;;;;;;9.40;9.40;;;;;35.38;19.32;98891.09;6143265;28;125650;-63
2021/06/08 13:23:02;;;;;;;;;10.40;10.40;;;;;35.19;18.20;98890.13;6146399;28;125807;-62
2021/06/08 13:26:08;;;;;;;;;12.00;11.00;;;;;35.06;18.48;98896.34;6144356;28;125269;-62
2021/06/08 13:29:18;;;;;;;;;9.00;9.00;;;;;34.87;18.02;98886.16;6138627;28;125878;-62
2021/06/08 13:32:26;;;;;;;;;10.00;9.40;;;;;34.68;20.25;98887.13;6142807;28;124393;-61
2021/06/08 13:35:34;;;;;;;;;9.75;9.00;;;;;34.47;18.78;98880.41;6154671;28;123099;-61
2021/06/08 13:38:37;;;;;;;;;9.00;9.00;;;;;34.34;19.62;98891.06;6133193;28;126036;-61
2021/06/08 13:41:42;;;;;;;;;7.20;7.20;;;;;34.13;20.03;98891.53;6152466;28;126147;-62
2021/06/08 13:44:58;;;;;;;;;8.80;8.80;;;;;33.97;19.93;98890.09;6139453;28;126867;-61
2021/06/08 13:48:34;;;;;;;;;10.60;10.00;;;;;33.80;20.13;98875.47;6145033;28;126106;-61
2021/06/08 13:51:36;;;;;;;;;13.00;11.00;;;;;33.67;20.41;98890.84;6145571;28;125847;-62
2021/06/08 13:54:46;;;;;;;;;10.20;10.00;;;;;33.57;21.67;98897.03;6170689;28;125419;-62
2021/06/08 14:01:27;;;;;;;;;9.20;9.20;;;;;33.41;21.26;98890.75;6142297;28;123350;-62
2021/06/08 14:04:41;;;;;;;;;11.00;10.00;;;;;33.38;21.54;98888.72;6153411;28;125363;-63
2021/06/08 14:07:44;;;;;;;;;11.00;11.00;;;;;33.35;21.22;98884.69;6151143;28;126596;-62
2021/06/08 14:10:51;;;;;;;;;11.00;10.60;;;;;33.34;21.80;98880.25;6146973;28;124519;-62